Time;durP1;ratioP1;P1;durP2;ratioP2;P2;SDS_P1;SDS_P2;PMS_P1;PMS_P2;Temp;Humidity;BMP_temperature;BMP_pressure;BME280_temperature;BME280_humidity;BME280_pressure;Samples;Min_cycle;Max_cycle;Signal;HPM_P1;HPM_P2
2022/03/13 00:00:38;;;;;;;12.75;3.25;;;;;;;;;;5012267;28;20048;-77
2022/03/13 00:03:05;;;;;;;7.85;3.08;;;;;;;;;;4981868;28;20452;-76
2022/03/13 00:05:33;;;;;;;15.15;3.88;;;;;;;;;;4995628;28;20056;-77
2022/03/13 00:08:00;;;;;;;17.17;3.90;;;;;;;;;;5012886;28;20029;-77
2022/03/13 00:10:27;;;;;;;16.45;3.92;;;;;;;;;;5009206;28;20101;-77
2022/03/13 00:12:54;;;;;;;10.32;3.65;;;;;;;;;;5013096;28;20464;-77
2022/03/13 00:15:26;;;;;;;8.32;4.35;;;;;;;;;;5009945;28;20026;-77
2022/03/13 00:17:52;;;;;;;8.48;3.70;;;;;;;;;;4998379;28;21450;-78
2022/03/13 00:20:20;;;;;;;9.93;3.10;;;;;;;;;;5009973;28;20021;-77
2022/03/13 00:22:46;;;;;;;9.27;3.33;;;;;;;;;;5013065;28;20392;-77
2022/03/13 00:25:13;;;;;;;11.15;3.78;;;;;;;;;;5013440;28;20030;-78
2022/03/13 00:27:39;;;;;;;16.70;3.50;;;;;;;;;;5003354;28;20092;-77
2022/03/13 00:30:06;;;;;;;15.00;4.00;;;;;;;;;;4996461;28;20026;-78
2022/03/13 00:32:32;;;;;;;9.27;3.40;;;;;;;;;;4996342;28;20064;-78
2022/03/13 00:34:59;;;;;;;13.70;4.95;;;;;;;;;;5012489;28;20392;-77
2022/03/13 00:37:25;;;;;;;10.43;3.58;;;;;;;;;;4992505;28;20069;-78
2022/03/13 00:39:51;;;;;;;11.55;4.00;;;;;;;;;;4994645;28;20029;-79
2022/03/13 00:42:17;;;;;;;12.75;3.95;;;;;;;;;;5011604;28;20087;-77
2022/03/13 00:44:44;;;;;;;19.23;4.72;;;;;;;;;;5012725;28;20061;-78
2022/03/13 00:47:10;;;;;;;13.82;4.65;;;;;;;;;;5012751;28;20417;-78
2022/03/13 00:49:36;;;;;;;15.77;4.60;;;;;;;;;;4994679;28;20058;-78
2022/03/13 00:52:04;;;;;;;12.05;5.57;;;;;;;;;;5012166;28;20022;-77
2022/03/13 00:54:30;;;;;;;14.40;3.67;;;;;;;;;;5012633;28;20034;-78
2022/03/13 00:56:56;;;;;;;11.38;3.17;;;;;;;;;;5010903;28;20026;-79
2022/03/13 00:59:22;;;;;;;12.82;3.60;;;;;;;;;;4994826;28;20058;-78
2022/03/13 01:01:49;;;;;;;15.43;4.45;;;;;;;;;;5011378;28;20025;-78
2022/03/13 01:04:16;;;;;;;12.85;4.45;;;;;;;;;;5013048;28;20037;-78
2022/03/13 01:06:43;;;;;;;16.55;3.70;;;;;;;;;;5012129;28;20026;-77
2022/03/13 01:09:10;;;;;;;13.95;4.43;;;;;;;;;;5010995;28;20381;-78
2022/03/13 01:11:36;;;;;;;19.00;4.63;;;;;;;;;;4986581;28;20396;-77
2022/03/13 01:14:02;;;;;;;22.65;5.25;;;;;;;;;;5011748;28;20026;-78
2022/03/13 01:16:31;;;;;;;17.30;4.90;;;;;;;;;;5011535;28;20124;-77
2022/03/13 01:18:58;;;;;;;17.38;4.75;;;;;;;;;;5006901;28;20026;-77
2022/03/13 01:21:25;;;;;;;40.03;5.13;;;;;;;;;;5010136;28;20542;-77
2022/03/13 01:24:00;;;;;;;18.98;4.80;;;;;;;;;;5011409;28;20384;-78
2022/03/13 01:26:26;;;;;;;19.00;5.88;;;;;;;;;;5011501;28;20029;-76
2022/03/13 01:28:53;;;;;;;10.75;4.25;;;;;;;;;;5011420;28;20357;-77
2022/03/13 01:31:23;;;;;;;23.40;5.22;;;;;;;;;;5009330;28;20101;-77
2022/03/13 01:33:49;;;;;;;14.93;5.18;;;;;;;;;;5013042;28;20034;-77
2022/03/13 01:36:15;;;;;;;14.07;3.80;;;;;;;;;;4991885;28;20037;-77
2022/03/13 01:38:41;;;;;;;11.30;3.55;;;;;;;;;;5012393;28;20057;-77
2022/03/13 01:41:08;;;;;;;11.65;5.28;;;;;;;;;;5011033;28;20492;-77
2022/03/13 01:43:35;;;;;;;7.40;3.17;;;;;;;;;;5011073;28;20036;-78
2022/03/13 01:46:02;;;;;;;12.10;3.00;;;;;;;;;;5011109;28;20096;-78
2022/03/13 01:48:28;;;;;;;14.20;3.33;;;;;;;;;;5013196;28;20030;-78
2022/03/13 01:50:55;;;;;;;7.03;2.80;;;;;;;;;;5008981;28;20072;-77
2022/03/13 01:53:21;;;;;;;9.93;2.85;;;;;;;;;;4991955;28;20034;-77
2022/03/13 01:55:55;;;;;;;13.32;3.10;;;;;;;;;;5011320;28;20038;-77
2022/03/13 01:58:21;;;;;;;15.95;4.38;;;;;;;;;;5010135;28;20026;-77
2022/03/13 02:00:47;;;;;;;9.00;3.33;;;;;;;;;;4990487;28;20107;-76
2022/03/13 02:03:15;;;;;;;18.17;3.63;;;;;;;;;;4993324;28;20034;-77
2022/03/13 02:05:45;;;;;;;14.43;4.70;;;;;;;;;;5010748;28;20042;-77
2022/03/13 02:08:21;;;;;;;16.45;4.65;;;;;;;;;;5012130;28;20415;-77
2022/03/13 02:10:47;;;;;;;15.90;4.13;;;;;;;;;;4994150;28;20029;-77
2022/03/13 02:13:15;;;;;;;16.00;5.00;;;;;;;;;;5010588;28;20041;-77
2022/03/13 02:15:41;;;;;;;12.98;4.57;;;;;;;;;;4990991;28;20561;-77
2022/03/13 02:18:07;;;;;;;16.95;4.50;;;;;;;;;;5008347;28;20495;-78
2022/03/13 02:20:41;;;;;;;13.85;5.20;;;;;;;;;;5012106;28;20030;-77
2022/03/13 02:23:15;;;;;;;23.98;5.75;;;;;;;;;;5012065;28;20030;-77
2022/03/13 02:25:41;;;;;;;15.00;4.70;;;;;;;;;;5012206;28;20045;-77
2022/03/13 02:28:07;;;;;;;18.50;4.80;;;;;;;;;;5008451;28;20038;-77
2022/03/13 02:30:34;;;;;;;19.75;5.53;;;;;;;;;;5009871;28;20041;-76
2022/03/13 02:33:00;;;;;;;24.70;5.18;;;;;;;;;;5008621;28;20041;-77
2022/03/13 02:35:29;;;;;;;19.15;5.47;;;;;;;;;;5012132;28;20016;-77
2022/03/13 02:37:55;;;;;;;19.00;4.68;;;;;;;;;;4992348;28;20129;-76
2022/03/13 02:40:23;;;;;;;29.13;4.75;;;;;;;;;;5011121;28;20029;-77
2022/03/13 02:42:52;;;;;;;17.63;6.82;;;;;;;;;;5008213;28;20048;-77
2022/03/13 02:45:29;;;;;;;22.98;5.70;;;;;;;;;;5010376;28;20038;-77
2022/03/13 02:47:55;;;;;;;14.77;4.20;;;;;;;;;;5008426;28;20088;-77
2022/03/13 02:50:22;;;;;;;16.25;5.10;;;;;;;;;;5007592;28;20053;-77
2022/03/13 02:52:49;;;;;;;10.73;3.80;;;;;;;;;;5007983;28;20026;-77
2022/03/13 02:55:15;;;;;;;13.32;3.78;;;;;;;;;;5009226;28;20030;-77
2022/03/13 02:57:41;;;;;;;21.08;5.05;;;;;;;;;;4993567;28;20088;-77
2022/03/13 03:00:08;;;;;;;21.75;4.40;;;;;;;;;;5010641;28;20152;-77
2022/03/13 03:02:35;;;;;;;12.70;3.35;;;;;;;;;;5009890;28;20033;-77
2022/03/13 03:05:06;;;;;;;18.98;4.38;;;;;;;;;;4994728;28;20381;-77
2022/03/13 03:07:32;;;;;;;21.73;6.88;;;;;;;;;;5009781;28;20033;-77
2022/03/13 03:09:58;;;;;;;16.10;4.63;;;;;;;;;;5012101;28;20030;-77
2022/03/13 03:12:25;;;;;;;22.33;5.18;;;;;;;;;;5006864;28;20554;-77
2022/03/13 03:14:51;;;;;;;16.63;4.47;;;;;;;;;;5007718;28;20057;-77
2022/03/13 03:17:17;;;;;;;18.48;5.47;;;;;;;;;;5010105;28;20038;-76
2022/03/13 03:19:43;;;;;;;15.00;4.50;;;;;;;;;;5010310;28;20045;-76
2022/03/13 03:22:09;;;;;;;18.52;4.40;;;;;;;;;;5006763;28;20026;-77
2022/03/13 03:24:35;;;;;;;21.50;6.60;;;;;;;;;;5009903;28;20041;-78
2022/03/13 03:27:01;;;;;;;14.55;4.28;;;;;;;;;;5011144;28;20734;-77
2022/03/13 03:29:28;;;;;;;14.00;3.40;;;;;;;;;;5009956;28;20427;-77
2022/03/13 03:31:55;;;;;;;10.82;3.22;;;;;;;;;;5009239;28;20029;-76
2022/03/13 03:34:22;;;;;;;12.65;3.33;;;;;;;;;;5005408;28;20029;-77
2022/03/13 03:36:49;;;;;;;10.82;3.03;;;;;;;;;;4993390;28;20036;-75
2022/03/13 03:39:16;;;;;;;11.98;3.25;;;;;;;;;;5015342;28;20057;-77
2022/03/13 03:41:44;;;;;;;10.55;4.28;;;;;;;;;;5014148;28;20050;-77
2022/03/13 03:44:10;;;;;;;9.68;4.60;;;;;;;;;;5009033;28;20030;-77
2022/03/13 03:46:36;;;;;;;10.13;3.53;;;;;;;;;;5010622;28;20032;-77
2022/03/13 03:49:02;;;;;;;7.57;3.03;;;;;;;;;;5008611;28;20026;-77
2022/03/13 03:51:28;;;;;;;14.85;4.57;;;;;;;;;;5009420;28;20052;-77
2022/03/13 03:53:55;;;;;;;14.10;3.58;;;;;;;;;;5008543;28;20080;-76
2022/03/13 03:56:22;;;;;;;15.55;3.83;;;;;;;;;;5010104;28;20052;-77
2022/03/13 03:58:51;;;;;;;14.45;4.18;;;;;;;;;;5009373;28;20092;-78
2022/03/13 04:01:17;;;;;;;13.90;3.80;;;;;;;;;;5008164;28;20116;-77
2022/03/13 04:03:44;;;;;;;16.23;4.80;;;;;;;;;;5004732;28;20022;-77
2022/03/13 04:06:10;;;;;;;20.20;5.90;;;;;;;;;;5008961;28;20026;-77
2022/03/13 04:08:37;;;;;;;12.57;3.78;;;;;;;;;;5008978;28;20025;-77
2022/03/13 04:11:03;;;;;;;16.30;4.38;;;;;;;;;;5010129;28;20770;-77
2022/03/13 04:13:29;;;;;;;13.63;3.78;;;;;;;;;;5007761;28;20507;-77
2022/03/13 04:15:56;;;;;;;11.05;3.95;;;;;;;;;;5009108;28;20037;-77
2022/03/13 04:18:22;;;;;;;17.48;5.25;;;;;;;;;;5009171;28;20129;-77
2022/03/13 04:20:48;;;;;;;6.63;2.67;;;;;;;;;;5007536;28;20026;-76
2022/03/13 04:23:15;;;;;;;10.95;3.88;;;;;;;;;;5008801;28;20034;-76
2022/03/13 04:25:41;;;;;;;15.48;3.50;;;;;;;;;;5008607;28;20029;-78
2022/03/13 04:28:10;;;;;;;14.93;3.42;;;;;;;;;;5008596;28;20539;-78
2022/03/13 04:30:40;;;;;;;17.15;3.72;;;;;;;;;;5010293;28;20088;-78
2022/03/13 04:33:07;;;;;;;10.85;3.33;;;;;;;;;;5002977;28;20038;-77
2022/03/13 04:35:33;;;;;;;9.35;4.05;;;;;;;;;;4992653;28;20377;-77
2022/03/13 04:37:59;;;;;;;14.57;4.00;;;;;;;;;;5012326;28;20046;-77
2022/03/13 04:40:26;;;;;;;13.68;3.88;;;;;;;;;;5012319;28;20026;-77
2022/03/13 04:42:52;;;;;;;9.85;3.10;;;;;;;;;;5011107;28;20033;-77
2022/03/13 04:45:18;;;;;;;13.70;4.22;;;;;;;;;;5011617;28;20484;-77
2022/03/13 04:47:45;;;;;;;12.20;4.43;;;;;;;;;;5012415;28;20044;-77
2022/03/13 04:50:11;;;;;;;13.95;4.20;;;;;;;;;;5009796;28;20029;-77
2022/03/13 04:52:37;;;;;;;11.77;2.75;;;;;;;;;;4995656;28;20037;-77
2022/03/13 04:55:05;;;;;;;10.20;3.72;;;;;;;;;;5011491;28;20026;-78
2022/03/13 04:57:31;;;;;;;6.38;2.65;;;;;;;;;;5013961;28;20476;-77
2022/03/13 04:59:57;;;;;;;8.75;2.95;;;;;;;;;;5010149;28;20484;-77
2022/03/13 05:02:23;;;;;;;8.35;3.67;;;;;;;;;;5012734;28;20029;-77
2022/03/13 05:04:49;;;;;;;8.52;2.42;;;;;;;;;;5011616;28;20036;-77
2022/03/13 05:07:20;;;;;;;7.38;2.83;;;;;;;;;;5010907;28;20089;-77
2022/03/13 05:09:46;;;;;;;7.00;2.45;;;;;;;;;;5011373;28;20052;-77
2022/03/13 05:12:14;;;;;;;4.03;1.90;;;;;;;;;;5013492;28;20030;-78
2022/03/13 05:14:40;;;;;;;7.22;2.15;;;;;;;;;;5012909;28;20052;-77
2022/03/13 05:17:06;;;;;;;5.75;3.00;;;;;;;;;;5011439;28;20021;-77
2022/03/13 05:19:33;;;;;;;14.45;3.03;;;;;;;;;;5011720;28;20391;-77
2022/03/13 05:21:59;;;;;;;10.25;3.15;;;;;;;;;;5012584;28;20068;-78
2022/03/13 05:24:25;;;;;;;7.80;3.28;;;;;;;;;;5013471;28;20559;-78
2022/03/13 05:26:51;;;;;;;5.28;2.65;;;;;;;;;;5011392;28;20383;-78
2022/03/13 05:29:17;;;;;;;9.23;3.03;;;;;;;;;;5012550;28;20053;-78
2022/03/13 05:31:43;;;;;;;9.90;3.45;;;;;;;;;;4994208;28;20061;-78
2022/03/13 05:34:10;;;;;;;8.55;3.15;;;;;;;;;;5010840;28;20475;-78
2022/03/13 05:36:36;;;;;;;7.50;3.38;;;;;;;;;;5012958;28;20123;-77
2022/03/13 05:39:02;;;;;;;6.97;2.97;;;;;;;;;;5016859;28;20445;-78
2022/03/13 05:41:29;;;;;;;6.80;2.67;;;;;;;;;;4999191;28;20037;-78
2022/03/13 05:43:55;;;;;;;5.80;2.20;;;;;;;;;;5011479;28;20076;-77
2022/03/13 05:46:21;;;;;;;11.27;2.60;;;;;;;;;;4993341;28;21048;-78
2022/03/13 05:48:47;;;;;;;6.80;2.40;;;;;;;;;;5008054;28;20054;-78
2022/03/13 05:51:13;;;;;;;6.07;2.30;;;;;;;;;;5011026;28;20021;-77
2022/03/13 05:53:40;;;;;;;2.85;2.08;;;;;;;;;;5010582;28;20054;-79
2022/03/13 05:56:06;;;;;;;13.15;2.88;;;;;;;;;;5009990;28;20029;-78
2022/03/13 05:58:32;;;;;;;6.97;2.35;;;;;;;;;;5012127;28;20030;-78
2022/03/13 06:01:06;;;;;;;4.43;2.92;;;;;;;;;;5010706;28;20030;-78
2022/03/13 06:03:33;;;;;;;9.43;3.15;;;;;;;;;;5012245;28;20026;-78
2022/03/13 06:06:01;;;;;;;6.90;2.50;;;;;;;;;;4993112;28;20116;-78
2022/03/13 06:08:27;;;;;;;8.25;2.70;;;;;;;;;;4990207;28;20022;-79
2022/03/13 06:10:53;;;;;;;3.88;2.25;;;;;;;;;;5010099;28;20477;-78
2022/03/13 06:13:22;;;;;;;8.48;3.05;;;;;;;;;;4998006;28;20049;-77
2022/03/13 06:15:48;;;;;;;8.02;2.55;;;;;;;;;;5006610;28;20037;-78
2022/03/13 06:18:14;;;;;;;5.88;2.08;;;;;;;;;;5014171;28;20080;-78
2022/03/13 06:20:40;;;;;;;5.43;2.53;;;;;;;;;;5011149;28;20033;-78
2022/03/13 06:23:09;;;;;;;8.43;2.17;;;;;;;;;;5011164;28;20030;-77
2022/03/13 06:25:35;;;;;;;6.32;2.30;;;;;;;;;;5012044;28;20435;-78
2022/03/13 06:28:01;;;;;;;5.95;2.28;;;;;;;;;;5011165;28;20022;-76
2022/03/13 06:30:29;;;;;;;7.20;2.33;;;;;;;;;;5012938;28;20507;-78
2022/03/13 06:32:56;;;;;;;5.47;2.25;;;;;;;;;;5012886;28;20144;-78
2022/03/13 06:35:23;;;;;;;3.58;2.08;;;;;;;;;;5016097;28;20026;-78
2022/03/13 06:37:50;;;;;;;4.38;1.85;;;;;;;;;;5014135;28;20144;-78
2022/03/13 06:40:18;;;;;;;2.45;1.83;;;;;;;;;;5007637;28;20050;-78
2022/03/13 06:42:45;;;;;;;4.57;1.60;;;;;;;;;;5011036;28;20022;-78
2022/03/13 06:45:11;;;;;;;3.17;1.30;;;;;;;;;;5008770;28;20030;-78
2022/03/13 06:47:38;;;;;;;4.50;1.48;;;;;;;;;;5010906;28;20026;-78
2022/03/13 06:50:04;;;;;;;3.80;1.75;;;;;;;;;;5010985;28;20044;-78
2022/03/13 06:52:30;;;;;;;3.38;1.77;;;;;;;;;;5007757;28;20036;-77
2022/03/13 06:54:56;;;;;;;3.58;1.92;;;;;;;;;;5010560;28;20033;-77
2022/03/13 06:57:22;;;;;;;4.85;3.03;;;;;;;;;;5008899;28;20034;-78
2022/03/13 06:59:49;;;;;;;3.90;1.60;;;;;;;;;;4997298;28;20105;-78
2022/03/13 07:02:15;;;;;;;6.22;1.98;;;;;;;;;;5010935;28;20548;-78
2022/03/13 07:04:41;;;;;;;1.42;1.27;;;;;;;;;;5010270;28;20056;-78
2022/03/13 07:07:07;;;;;;;3.80;1.38;;;;;;;;;;5008279;28;20484;-78
2022/03/13 07:09:33;;;;;;;2.58;1.50;;;;;;;;;;5011193;28;20030;-77
2022/03/13 07:11:59;;;;;;;2.63;1.45;;;;;;;;;;5011120;28;20108;-78
2022/03/13 07:14:25;;;;;;;5.22;1.63;;;;;;;;;;5009147;28;20049;-77
2022/03/13 07:16:52;;;;;;;2.78;1.77;;;;;;;;;;5008961;28;20033;-77
2022/03/13 07:19:18;;;;;;;6.90;2.40;;;;;;;;;;5012963;28;20496;-77
2022/03/13 07:21:45;;;;;;;6.82;2.22;;;;;;;;;;5007850;28;20021;-77
2022/03/13 07:24:11;;;;;;;5.95;2.17;;;;;;;;;;5012092;28;20037;-77
2022/03/13 07:26:37;;;;;;;8.40;2.28;;;;;;;;;;5011046;28;20079;-78
2022/03/13 07:29:04;;;;;;;4.35;1.80;;;;;;;;;;5012980;28;20052;-78
2022/03/13 07:31:30;;;;;;;6.35;2.40;;;;;;;;;;5011173;28;20068;-78
2022/03/13 07:33:57;;;;;;;8.73;2.05;;;;;;;;;;4994314;28;20037;-78
2022/03/13 07:36:23;;;;;;;10.98;2.00;;;;;;;;;;5009745;28;20105;-78
2022/03/13 07:38:49;;;;;;;6.63;2.50;;;;;;;;;;5011782;28;20053;-78
2022/03/13 07:41:15;;;;;;;6.32;2.10;;;;;;;;;;5009163;28;20058;-78
2022/03/13 07:43:42;;;;;;;5.07;2.10;;;;;;;;;;4991433;28;20037;-78
2022/03/13 07:46:08;;;;;;;3.15;1.90;;;;;;;;;;5008181;28;20030;-77
2022/03/13 07:48:35;;;;;;;4.72;2.22;;;;;;;;;;5009750;28;20081;-77
2022/03/13 07:51:03;;;;;;;5.82;1.90;;;;;;;;;;4987908;28;20037;-77
2022/03/13 07:53:29;;;;;;;11.00;2.70;;;;;;;;;;5006040;28;20388;-77
2022/03/13 07:55:56;;;;;;;6.00;1.73;;;;;;;;;;5007799;28;20468;-78
2022/03/13 07:58:22;;;;;;;2.13;1.40;;;;;;;;;;4992933;28;20037;-78
2022/03/13 08:00:49;;;;;;;7.10;2.33;;;;;;;;;;4991440;28;20066;-77
2022/03/13 08:03:20;;;;;;;4.90;1.70;;;;;;;;;;4989821;28;20034;-78
2022/03/13 08:05:46;;;;;;;7.60;2.53;;;;;;;;;;5010524;28;20033;-78
2022/03/13 08:08:13;;;;;;;5.55;2.13;;;;;;;;;;4994506;28;20141;-79
2022/03/13 08:10:39;;;;;;;4.78;1.90;;;;;;;;;;4993475;28;20030;-78
2022/03/13 08:13:05;;;;;;;5.45;1.98;;;;;;;;;;5016067;28;20026;-77
2022/03/13 08:15:31;;;;;;;5.15;1.75;;;;;;;;;;5014015;28;20083;-77
2022/03/13 08:17:57;;;;;;;3.05;2.55;;;;;;;;;;5013731;28;20045;-78
2022/03/13 08:20:23;;;;;;;2.78;1.85;;;;;;;;;;5013488;28;20583;-78
2022/03/13 08:22:49;;;;;;;3.13;1.65;;;;;;;;;;5012324;28;20048;-78
2022/03/13 08:25:18;;;;;;;8.32;2.13;;;;;;;;;;5015170;28;20145;-78
2022/03/13 08:27:44;;;;;;;5.05;1.88;;;;;;;;;;5015517;28;20676;-78
2022/03/13 08:30:12;;;;;;;5.55;1.80;;;;;;;;;;5014035;28;20480;-78
2022/03/13 08:32:39;;;;;;;5.72;2.05;;;;;;;;;;5012136;28;20042;-78
2022/03/13 08:35:06;;;;;;;3.22;2.10;;;;;;;;;;4994987;28;20488;-79
2022/03/13 08:37:32;;;;;;;5.55;2.05;;;;;;;;;;5012949;28;20484;-77
2022/03/13 08:39:58;;;;;;;7.88;2.20;;;;;;;;;;5011634;28;20475;-78
2022/03/13 08:42:24;;;;;;;2.97;1.50;;;;;;;;;;5005781;28;20033;-78
2022/03/13 08:44:50;;;;;;;6.75;2.13;;;;;;;;;;5010375;28;20038;-78
2022/03/13 08:47:16;;;;;;;5.28;2.42;;;;;;;;;;5009129;28;20117;-78
2022/03/13 08:49:42;;;;;;;8.73;2.63;;;;;;;;;;5011476;28;20033;-78
2022/03/13 08:52:08;;;;;;;5.95;2.00;;;;;;;;;;4998890;28;20029;-79
2022/03/13 08:54:35;;;;;;;6.50;2.72;;;;;;;;;;5012643;28;20053;-78
2022/03/13 08:57:02;;;;;;;8.40;2.38;;;;;;;;;;5010479;28;20104;-78
2022/03/13 08:59:29;;;;;;;5.80;2.10;;;;;;;;;;5011006;28;20080;-78
2022/03/13 09:01:55;;;;;;;8.18;2.53;;;;;;;;;;5011390;28;20034;-78
2022/03/13 09:04:21;;;;;;;5.50;2.13;;;;;;;;;;5012922;28;20041;-78
2022/03/13 09:06:49;;;;;;;6.90;2.25;;;;;;;;;;5013132;28;20036;-80
2022/03/13 09:09:15;;;;;;;8.48;2.45;;;;;;;;;;5010624;28;20034;-78
2022/03/13 09:11:41;;;;;;;6.93;2.47;;;;;;;;;;5012271;28;20041;-79
2022/03/13 09:14:08;;;;;;;9.18;2.72;;;;;;;;;;5014129;28;20021;-78
2022/03/13 09:16:37;;;;;;;6.13;2.47;;;;;;;;;;5012827;28;20479;-78
2022/03/13 09:19:03;;;;;;;10.55;3.33;;;;;;;;;;5012538;28;20117;-77
2022/03/13 09:21:31;;;;;;;7.53;2.63;;;;;;;;;;5014730;28;20029;-78
2022/03/13 09:23:57;;;;;;;7.70;2.50;;;;;;;;;;5012286;28;20499;-78
2022/03/13 09:26:23;;;;;;;6.28;2.25;;;;;;;;;;5014580;28;20041;-79
2022/03/13 09:28:50;;;;;;;8.05;2.78;;;;;;;;;;5015116;28;20472;-78
2022/03/13 09:31:16;;;;;;;9.02;2.20;;;;;;;;;;5013694;28;20073;-79
2022/03/13 09:33:42;;;;;;;6.72;2.40;;;;;;;;;;5011753;28;20476;-79
2022/03/13 09:36:08;;;;;;;7.45;2.42;;;;;;;;;;5012250;28;20479;-78
2022/03/13 09:38:34;;;;;;;9.55;2.60;;;;;;;;;;5013095;28;20085;-78
2022/03/13 09:41:00;;;;;;;5.32;2.28;;;;;;;;;;5014183;28;20049;-79
2022/03/13 09:43:26;;;;;;;11.85;2.78;;;;;;;;;;5008801;28;20026;-78
2022/03/13 09:45:52;;;;;;;8.13;2.58;;;;;;;;;;5014930;28;20056;-79
2022/03/13 09:48:20;;;;;;;7.22;2.95;;;;;;;;;;5012524;28;20088;-78
2022/03/13 09:50:46;;;;;;;9.48;3.45;;;;;;;;;;5013227;28;20711;-78
2022/03/13 09:53:13;;;;;;;6.68;2.40;;;;;;;;;;4996485;28;20026;-78
2022/03/13 09:55:39;;;;;;;7.82;2.83;;;;;;;;;;4986507;28;20089;-78
2022/03/13 09:58:09;;;;;;;5.32;2.25;;;;;;;;;;5012767;28;20037;-78
2022/03/13 10:00:36;;;;;;;5.28;2.20;;;;;;;;;;4994522;28;20080;-77
2022/03/13 10:03:05;;;;;;;4.95;2.10;;;;;;;;;;5012260;28;20061;-78
2022/03/13 10:05:41;;;;;;;7.53;3.63;;;;;;;;;;5011617;28;20033;-78
2022/03/13 10:08:07;;;;;;;7.00;2.80;;;;;;;;;;5010727;28;20089;-78
2022/03/13 10:10:43;;;;;;;8.07;2.88;;;;;;;;;;4996936;28;20034;-78
2022/03/13 10:13:10;;;;;;;12.13;3.85;;;;;;;;;;4997794;28;20026;-79
2022/03/13 10:15:43;;;;;;;6.78;2.33;;;;;;;;;;5014158;28;20100;-79
2022/03/13 10:18:20;;;;;;;8.02;2.53;;;;;;;;;;5014600;28;20037;-78
2022/03/13 10:20:47;;;;;;;4.65;2.25;;;;;;;;;;5012004;28;20507;-77
2022/03/13 10:23:19;;;;;;;8.98;2.53;;;;;;;;;;5012607;28;20060;-79
2022/03/13 10:25:46;;;;;;;10.10;2.50;;;;;;;;;;5012799;28;20025;-78
2022/03/13 10:28:17;;;;;;;10.15;3.28;;;;;;;;;;5013470;28;20033;-78
2022/03/13 10:30:44;;;;;;;7.53;2.38;;;;;;;;;;5006444;28;20029;-78
2022/03/13 10:33:10;;;;;;;9.35;3.95;;;;;;;;;;5009996;28;20029;-78
2022/03/13 10:35:37;;;;;;;6.85;2.60;;;;;;;;;;5012171;28;20026;-78
2022/03/13 10:38:16;;;;;;;4.70;2.50;;;;;;;;;;5012234;28;20500;-77
2022/03/13 10:40:43;;;;;;;7.43;2.33;;;;;;;;;;5006922;28;20101;-77
2022/03/13 10:43:09;;;;;;;8.30;2.60;;;;;;;;;;5011998;28;20471;-78
2022/03/13 10:45:39;;;;;;;8.55;2.88;;;;;;;;;;5011701;28;20470;-77
2022/03/13 10:48:28;;;;;;;6.47;2.30;;;;;;;;;;5011684;28;20488;-78
2022/03/13 10:50:56;;;;;;;9.65;2.95;;;;;;;;;;5000285;28;20124;-78
2022/03/13 10:53:22;;;;;;;7.72;3.22;;;;;;;;;;5012342;28;20025;-78
2022/03/13 10:56:06;;;;;;;10.88;2.50;;;;;;;;;;5011223;28;20029;-78
2022/03/13 10:58:35;;;;;;;12.57;3.95;;;;;;;;;;5010675;28;20024;-78
2022/03/13 11:01:09;;;;;;;7.13;3.42;;;;;;;;;;5007851;28;20492;-77
2022/03/13 11:03:37;;;;;;;8.80;4.13;;;;;;;;;;5010256;28;20025;-78
2022/03/13 11:06:04;;;;;;;11.15;3.20;;;;;;;;;;5011759;28;20492;-77
2022/03/13 11:08:31;;;;;;;6.03;2.90;;;;;;;;;;5011313;28;20032;-78
2022/03/13 11:10:58;;;;;;;11.73;3.65;;;;;;;;;;5015143;28;20017;-77
2022/03/13 11:13:26;;;;;;;5.97;3.00;;;;;;;;;;5015345;28;20028;-78
2022/03/13 11:15:55;;;;;;;7.25;3.20;;;;;;;;;;5005713;28;20060;-78
2022/03/13 11:18:22;;;;;;;4.47;2.63;;;;;;;;;;5009568;28;20081;-77
2022/03/13 11:20:48;;;;;;;8.18;2.53;;;;;;;;;;5012290;28;20048;-77
2022/03/13 11:23:15;;;;;;;6.65;2.33;;;;;;;;;;5010734;28;20042;-78
2022/03/13 11:25:41;;;;;;;7.03;3.50;;;;;;;;;;5011589;28;20464;-77
2022/03/13 11:28:07;;;;;;;10.75;3.80;;;;;;;;;;5011729;28;20030;-78
2022/03/13 11:30:35;;;;;;;9.52;2.60;;;;;;;;;;5012333;28;20423;-78
2022/03/13 11:33:02;;;;;;;5.18;3.05;;;;;;;;;;4993797;28;20025;-77
2022/03/13 11:35:31;;;;;;;10.40;4.68;;;;;;;;;;5010963;28;20029;-78
2022/03/13 11:38:00;;;;;;;7.10;2.55;;;;;;;;;;5010077;28;20037;-77
2022/03/13 11:40:31;;;;;;;8.00;2.33;;;;;;;;;;5011366;28;20076;-78
2022/03/13 11:43:10;;;;;;;5.57;2.30;;;;;;;;;;5011760;28;20057;-78
2022/03/13 11:45:39;;;;;;;3.92;2.67;;;;;;;;;;4990782;28;20480;-78
2022/03/13 11:48:05;;;;;;;6.25;2.58;;;;;;;;;;5011355;28;20032;-79
2022/03/13 11:50:47;;;;;;;9.95;3.80;;;;;;;;;;5011764;28;20026;-78
2022/03/13 11:53:17;;;;;;;6.82;2.22;;;;;;;;;;5011757;28;20030;-79
2022/03/13 11:55:59;;;;;;;7.05;2.33;;;;;;;;;;5011080;28;20026;-78
2022/03/13 11:58:40;;;;;;;8.65;3.05;;;;;;;;;;5012738;28;20030;-79
2022/03/13 12:01:07;;;;;;;6.35;2.10;;;;;;;;;;5007459;28;20030;-78
2022/03/13 12:03:33;;;;;;;5.15;2.20;;;;;;;;;;5011676;28;20025;-78
2022/03/13 12:05:59;;;;;;;3.80;1.90;;;;;;;;;;5010733;28;20033;-77
2022/03/13 12:08:45;;;;;;;3.10;2.20;;;;;;;;;;4992781;28;20488;-78
2022/03/13 12:11:34;;;;;;;5.30;2.03;;;;;;;;;;5010161;28;20037;-78
2022/03/13 12:14:01;;;;;;;3.08;2.17;;;;;;;;;;5010574;28;20029;-78
2022/03/13 12:16:27;;;;;;;4.88;2.22;;;;;;;;;;5008345;28;20030;-78
2022/03/13 12:18:59;;;;;;;4.97;2.35;;;;;;;;;;5009385;28;20113;-78
2022/03/13 12:21:26;;;;;;;2.53;1.80;;;;;;;;;;5010809;28;20573;-78
2022/03/13 12:23:52;;;;;;;3.63;1.70;;;;;;;;;;4992539;28;20038;-78
2022/03/13 12:26:23;;;;;;;4.60;1.80;;;;;;;;;;5011513;28;20033;-78
2022/03/13 12:28:50;;;;;;;3.67;1.98;;;;;;;;;;5011156;28;20034;-78
2022/03/13 12:31:16;;;;;;;10.07;2.08;;;;;;;;;;5011026;28;20088;-78
2022/03/13 12:33:49;;;;;;;4.22;2.15;;;;;;;;;;5010226;28;20026;-78
2022/03/13 12:36:16;;;;;;;3.95;2.10;;;;;;;;;;5009572;28;20030;-78
2022/03/13 12:38:45;;;;;;;4.93;2.20;;;;;;;;;;5004216;28;20045;-77
2022/03/13 12:41:12;;;;;;;4.28;2.50;;;;;;;;;;5005262;28;20030;-78
2022/03/13 12:43:50;;;;;;;5.72;2.20;;;;;;;;;;5007112;28;20053;-78
2022/03/13 12:46:17;;;;;;;3.03;1.70;;;;;;;;;;5006557;28;20030;-78
2022/03/13 12:48:56;;;;;;;3.70;1.85;;;;;;;;;;5007792;28;20038;-78
2022/03/13 12:51:38;;;;;;;3.63;1.58;;;;;;;;;;4988844;28;20022;-79
2022/03/13 12:54:12;;;;;;;3.67;1.75;;;;;;;;;;4991350;28;20034;-78
2022/03/13 12:56:49;;;;;;;4.28;2.20;;;;;;;;;;5010858;28;20026;-77
2022/03/13 12:59:22;;;;;;;3.25;2.00;;;;;;;;;;5012158;28;20087;-78
2022/03/13 13:02:10;;;;;;;5.32;2.38;;;;;;;;;;5012194;28;20498;-77
2022/03/13 13:04:37;;;;;;;6.18;2.25;;;;;;;;;;5011353;28;20050;-78
2022/03/13 13:07:08;;;;;;;4.85;2.00;;;;;;;;;;5011812;28;20036;-79
2022/03/13 13:09:36;;;;;;;2.45;1.98;;;;;;;;;;5014673;28;20145;-79
2022/03/13 13:12:03;;;;;;;1.90;1.70;;;;;;;;;;5013941;28;20037;-78
2022/03/13 13:14:30;;;;;;;2.15;1.52;;;;;;;;;;5011714;28;20476;-78
2022/03/13 13:16:57;;;;;;;4.03;2.63;;;;;;;;;;5009778;28;20189;-77
2022/03/13 13:19:23;;;;;;;3.50;1.80;;;;;;;;;;5011789;28;20404;-77
2022/03/13 13:21:56;;;;;;;4.18;1.88;;;;;;;;;;5011806;28;20040;-78
2022/03/13 13:24:27;;;;;;;5.72;2.17;;;;;;;;;;4997422;28;20025;-77
2022/03/13 13:26:53;;;;;;;3.75;1.73;;;;;;;;;;5005997;28;20022;-77
2022/03/13 13:29:35;;;;;;;2.78;1.60;;;;;;;;;;4992440;28;20404;-78
2022/03/13 13:32:17;;;;;;;1.42;1.40;;;;;;;;;;5009777;28;20029;-79
2022/03/13 13:35:00;;;;;;;1.88;1.65;;;;;;;;;;5009051;28;20681;-78
2022/03/13 13:37:26;;;;;;;2.75;1.60;;;;;;;;;;5006794;28;20026;-79
2022/03/13 13:40:02;;;;;;;2.90;1.80;;;;;;;;;;5010638;28;20030;-77
2022/03/13 13:42:32;;;;;;;3.00;2.10;;;;;;;;;;5006888;28;20109;-78
2022/03/13 13:44:59;;;;;;;4.78;1.70;;;;;;;;;;5008397;28;20480;-79
2022/03/13 13:47:29;;;;;;;1.90;1.63;;;;;;;;;;5007009;28;20041;-80
2022/03/13 13:49:55;;;;;;;2.78;2.15;;;;;;;;;;5006918;28;20033;-78
2022/03/13 13:52:29;;;;;;;3.05;1.70;;;;;;;;;;5006460;28;20026;-79
2022/03/13 13:54:55;;;;;;;2.00;1.70;;;;;;;;;;5005459;28;20026;-79
2022/03/13 13:57:22;;;;;;;2.58;1.48;;;;;;;;;;5007287;28;20025;-78
2022/03/13 13:59:49;;;;;;;2.83;1.63;;;;;;;;;;5007470;28;20033;-77
2022/03/13 14:02:17;;;;;;;4.45;1.42;;;;;;;;;;5006328;28;20021;-78
2022/03/13 14:04:45;;;;;;;2.17;1.60;;;;;;;;;;5006254;28;20396;-78
2022/03/13 14:07:12;;;;;;;2.65;1.60;;;;;;;;;;5008128;28;20035;-78
2022/03/13 14:09:39;;;;;;;1.48;1.38;;;;;;;;;;5004018;28;20061;-77
2022/03/13 14:12:06;;;;;;;4.68;1.65;;;;;;;;;;5006078;28;20026;-78
2022/03/13 14:14:32;;;;;;;2.58;1.92;;;;;;;;;;5008682;28;20026;-78
2022/03/13 14:16:58;;;;;;;4.13;2.50;;;;;;;;;;5008320;28;20062;-78
2022/03/13 14:19:26;;;;;;;2.58;2.00;;;;;;;;;;4996296;28;20022;-78
2022/03/13 14:21:53;;;;;;;4.25;1.85;;;;;;;;;;5008892;28;20038;-78
2022/03/13 14:24:19;;;;;;;4.18;3.42;;;;;;;;;;5008382;28;20038;-78
2022/03/13 14:26:48;;;;;;;5.13;2.92;;;;;;;;;;5004643;28;20053;-78
2022/03/13 14:29:17;;;;;;;6.72;4.93;;;;;;;;;;5004141;28;20140;-78
2022/03/13 14:31:43;;;;;;;10.55;6.47;;;;;;;;;;5006134;28;20041;-78
2022/03/13 14:34:09;;;;;;;6.80;4.18;;;;;;;;;;5006591;28;20029;-78
2022/03/13 14:36:40;;;;;;;4.97;2.47;;;;;;;;;;5004910;28;20026;-77
2022/03/13 14:39:07;;;;;;;6.10;4.18;;;;;;;;;;5006122;28;20107;-78
2022/03/13 14:41:33;;;;;;;2.97;1.50;;;;;;;;;;5005849;28;20026;-77